sensor_id;sensor_type;location;lat;lon;timestamp;temperature;humidity
16116;DHT22;8162;47.104;15.432;2022-09-09T00:00:33;15.60;86.40
16116;DHT22;8162;47.104;15.432;2022-09-09T00:03:17;15.50;86.70
16116;DHT22;8162;47.104;15.432;2022-09-09T00:06:08;15.50;87.00
16116;DHT22;8162;47.104;15.432;2022-09-09T00:11:17;15.50;87.50
16116;DHT22;8162;47.104;15.432;2022-09-09T00:13:52;15.40;87.60
16116;DHT22;8162;47.104;15.432;2022-09-09T00:16:27;15.50;87.60
16116;DHT22;8162;47.104;15.432;2022-09-09T00:21:38;15.40;87.30
16116;DHT22;8162;47.104;15.432;2022-09-09T00:26:55;15.30;87.60
16116;DHT22;8162;47.104;15.432;2022-09-09T00:29:43;15.30;87.30
16116;DHT22;8162;47.104;15.432;2022-09-09T00:32:17;15.30;87.40
16116;DHT22;8162;47.104;15.432;2022-09-09T00:35:10;15.20;87.50
16116;DHT22;8162;47.104;15.432;2022-09-09T00:37:41;15.10;87.60
16116;DHT22;8162;47.104;15.432;2022-09-09T00:40:27;15.10;87.90
16116;DHT22;8162;47.104;15.432;2022-09-09T00:48:11;15.20;87.70
16116;DHT22;8162;47.104;15.432;2022-09-09T00:50:44;15.10;87.80
16116;DHT22;8162;47.104;15.432;2022-09-09T00:53:35;15.10;87.80
16116;DHT22;8162;47.104;15.432;2022-09-09T00:56:12;15.00;87.50
16116;DHT22;8162;47.104;15.432;2022-09-09T00:58:39;15.00;87.60
16116;DHT22;8162;47.104;15.432;2022-09-09T01:01:12;15.00;87.50
16116;DHT22;8162;47.104;15.432;2022-09-09T01:03:55;15.00;87.80
16116;DHT22;8162;47.104;15.432;2022-09-09T01:06:30;15.00;87.70
16116;DHT22;8162;47.104;15.432;2022-09-09T01:09:19;14.90;87.60
16116;DHT22;8162;47.104;15.432;2022-09-09T01:17:02;14.80;87.70
16116;DHT22;8162;47.104;15.432;2022-09-09T01:20:08;14.80;88.10
16116;DHT22;8162;47.104;15.432;2022-09-09T01:22:48;14.80;87.80
16116;DHT22;8162;47.104;15.432;2022-09-09T01:28:16;14.80;87.90
16116;DHT22;8162;47.104;15.432;2022-09-09T01:30:46;14.80;88.00
16116;DHT22;8162;47.104;15.432;2022-09-09T01:33:17;14.80;87.90
16116;DHT22;8162;47.104;15.432;2022-09-09T01:35:56;14.90;87.90
16116;DHT22;8162;47.104;15.432;2022-09-09T01:38:24;14.80;87.70
16116;DHT22;8162;47.104;15.432;2022-09-09T01:40:51;14.70;87.50
16116;DHT22;8162;47.104;15.432;2022-09-09T01:43:21;14.70;87.50
16116;DHT22;8162;47.104;15.432;2022-09-09T01:45:49;14.60;87.60
16116;DHT22;8162;47.104;15.432;2022-09-09T01:48:17;14.60;87.70
16116;DHT22;8162;47.104;15.432;2022-09-09T01:50:43;14.60;88.00
16116;DHT22;8162;47.104;15.432;2022-09-09T01:53:09;14.70;88.00
16116;DHT22;8162;47.104;15.432;2022-09-09T01:55:40;14.80;88.00
16116;DHT22;8162;47.104;15.432;2022-09-09T02:00:43;14.90;88.00
16116;DHT22;8162;47.104;15.432;2022-09-09T02:03:28;15.00;87.80
16116;DHT22;8162;47.104;15.432;2022-09-09T02:06:36;14.90;87.80
16116;DHT22;8162;47.104;15.432;2022-09-09T02:09:05;14.90;87.50
16116;DHT22;8162;47.104;15.432;2022-09-09T02:11:32;14.90;87.40
16116;DHT22;8162;47.104;15.432;2022-09-09T02:14:21;14.80;87.60
16116;DHT22;8162;47.104;15.432;2022-09-09T02:16:59;14.90;87.80
16116;DHT22;8162;47.104;15.432;2022-09-09T02:19:42;14.80;87.70
16116;DHT22;8162;47.104;15.432;2022-09-09T02:22:11;14.80;87.50
16116;DHT22;8162;47.104;15.432;2022-09-09T02:24:39;14.70;87.70
16116;DHT22;8162;47.104;15.432;2022-09-09T02:27:08;14.60;87.50
16116;DHT22;8162;47.104;15.432;2022-09-09T02:29:37;14.60;87.70
16116;DHT22;8162;47.104;15.432;2022-09-09T02:32:07;14.60;87.80
16116;DHT22;8162;47.104;15.432;2022-09-09T02:34:37;14.50;88.00
16116;DHT22;8162;47.104;15.432;2022-09-09T02:37:06;14.60;88.20
16116;DHT22;8162;47.104;15.432;2022-09-09T02:39:33;14.60;88.30
16116;DHT22;8162;47.104;15.432;2022-09-09T02:41:59;14.60;88.50
16116;DHT22;8162;47.104;15.432;2022-09-09T02:44:25;14.70;88.40
16116;DHT22;8162;47.104;15.432;2022-09-09T02:47:16;14.80;88.30
16116;DHT22;8162;47.104;15.432;2022-09-09T02:52:54;14.70;88.20
16116;DHT22;8162;47.104;15.432;2022-09-09T02:55:54;14.70;88.10
16116;DHT22;8162;47.104;15.432;2022-09-09T02:58:22;14.70;88.20
16116;DHT22;8162;47.104;15.432;2022-09-09T03:00:50;14.70;88.50
16116;DHT22;8162;47.104;15.432;2022-09-09T03:03:17;14.70;88.50
16116;DHT22;8162;47.104;15.432;2022-09-09T03:05:44;14.70;88.70
16116;DHT22;8162;47.104;15.432;2022-09-09T03:08:10;14.80;88.70
16116;DHT22;8162;47.104;15.432;2022-09-09T03:10:36;14.80;88.50
16116;DHT22;8162;47.104;15.432;2022-09-09T03:13:03;14.80;88.70
16116;DHT22;8162;47.104;15.432;2022-09-09T03:15:31;14.80;88.80
16116;DHT22;8162;47.104;15.432;2022-09-09T03:17:57;14.80;88.60
16116;DHT22;8162;47.104;15.432;2022-09-09T03:20:25;14.80;88.70
16116;DHT22;8162;47.104;15.432;2022-09-09T03:22:52;14.80;88.80
16116;DHT22;8162;47.104;15.432;2022-09-09T03:25:18;14.90;88.60
16116;DHT22;8162;47.104;15.432;2022-09-09T03:27:44;14.90;88.60
16116;DHT22;8162;47.104;15.432;2022-09-09T03:30:10;15.00;88.60
16116;DHT22;8162;47.104;15.432;2022-09-09T03:32:36;15.00;88.50
16116;DHT22;8162;47.104;15.432;2022-09-09T03:35:02;15.00;88.50
16116;DHT22;8162;47.104;15.432;2022-09-09T03:37:28;15.00;88.50
16116;DHT22;8162;47.104;15.432;2022-09-09T03:39:54;15.00;88.10
16116;DHT22;8162;47.104;15.432;2022-09-09T03:42:20;15.00;88.10
16116;DHT22;8162;47.104;15.432;2022-09-09T03:44:47;14.90;87.90
16116;DHT22;8162;47.104;15.432;2022-09-09T03:47:19;14.90;88.10
16116;DHT22;8162;47.104;15.432;2022-09-09T03:49:45;14.80;88.20
16116;DHT22;8162;47.104;15.432;2022-09-09T03:52:12;14.80;88.30
16116;DHT22;8162;47.104;15.432;2022-09-09T03:54:38;14.80;88.50
16116;DHT22;8162;47.104;15.432;2022-09-09T03:57:04;14.80;88.30
16116;DHT22;8162;47.104;15.432;2022-09-09T03:59:30;14.80;88.10
16116;DHT22;8162;47.104;15.432;2022-09-09T04:01:56;14.80;88.00
16116;DHT22;8162;47.104;15.432;2022-09-09T04:04:24;14.80;88.20
16116;DHT22;8162;47.104;15.432;2022-09-09T04:06:50;14.80;87.80
16116;DHT22;8162;47.104;15.432;2022-09-09T04:09:16;14.80;88.00
16116;DHT22;8162;47.104;15.432;2022-09-09T04:11:41;14.80;87.90
16116;DHT22;8162;47.104;15.432;2022-09-09T04:14:07;14.80;87.70
16116;DHT22;8162;47.104;15.432;2022-09-09T04:16:33;14.70;87.80
16116;DHT22;8162;47.104;15.432;2022-09-09T04:18:59;14.70;88.00
16116;DHT22;8162;47.104;15.432;2022-09-09T04:21:25;14.70;88.00
16116;DHT22;8162;47.104;15.432;2022-09-09T04:23:51;14.70;88.10
16116;DHT22;8162;47.104;15.432;2022-09-09T04:26:17;14.70;87.90
16116;DHT22;8162;47.104;15.432;2022-09-09T04:28:43;14.60;88.10
16116;DHT22;8162;47.104;15.432;2022-09-09T04:31:15;14.60;88.30
16116;DHT22;8162;47.104;15.432;2022-09-09T04:33:41;14.50;88.40
16116;DHT22;8162;47.104;15.432;2022-09-09T04:36:07;14.60;88.60
16116;DHT22;8162;47.104;15.432;2022-09-09T04:38:32;14.50;88.60
16116;DHT22;8162;47.104;15.432;2022-09-09T04:40:58;14.50;88.60
16116;DHT22;8162;47.104;15.432;2022-09-09T04:43:24;14.50;88.60
16116;DHT22;8162;47.104;15.432;2022-09-09T04:45:53;14.50;88.70
16116;DHT22;8162;47.104;15.432;2022-09-09T04:48:19;14.60;88.90
16116;DHT22;8162;47.104;15.432;2022-09-09T04:51:06;14.60;88.80
16116;DHT22;8162;47.104;15.432;2022-09-09T04:53:34;14.50;88.80
16116;DHT22;8162;47.104;15.432;2022-09-09T04:56:08;14.50;89.20
16116;DHT22;8162;47.104;15.432;2022-09-09T04:58:35;14.50;89.10
16116;DHT22;8162;47.104;15.432;2022-09-09T05:01:10;14.60;89.10
16116;DHT22;8162;47.104;15.432;2022-09-09T05:03:36;14.60;89.10
16116;DHT22;8162;47.104;15.432;2022-09-09T05:06:08;14.70;89.20
16116;DHT22;8162;47.104;15.432;2022-09-09T05:08:38;14.80;89.10
16116;DHT22;8162;47.104;15.432;2022-09-09T05:11:13;14.80;89.00
16116;DHT22;8162;47.104;15.432;2022-09-09T05:13:38;14.80;88.90
16116;DHT22;8162;47.104;15.432;2022-09-09T05:16:04;14.80;88.90
16116;DHT22;8162;47.104;15.432;2022-09-09T05:18:30;14.80;88.80
16116;DHT22;8162;47.104;15.432;2022-09-09T05:20:59;14.80;88.80
16116;DHT22;8162;47.104;15.432;2022-09-09T05:23:25;14.80;88.80
16116;DHT22;8162;47.104;15.432;2022-09-09T05:25:58;14.80;88.80
16116;DHT22;8162;47.104;15.432;2022-09-09T05:28:27;14.80;88.90
16116;DHT22;8162;47.104;15.432;2022-09-09T05:31:00;14.90;88.90
16116;DHT22;8162;47.104;15.432;2022-09-09T05:33:29;14.90;89.00
16116;DHT22;8162;47.104;15.432;2022-09-09T05:36:21;15.00;89.00
16116;DHT22;8162;47.104;15.432;2022-09-09T05:38:46;15.00;89.10
16116;DHT22;8162;47.104;15.432;2022-09-09T05:41:12;15.10;89.30
16116;DHT22;8162;47.104;15.432;2022-09-09T05:43:40;15.10;89.10
16116;DHT22;8162;47.104;15.432;2022-09-09T05:46:10;15.10;89.10
16116;DHT22;8162;47.104;15.432;2022-09-09T05:48:37;15.20;89.00
16116;DHT22;8162;47.104;15.432;2022-09-09T05:51:04;15.20;89.00
16116;DHT22;8162;47.104;15.432;2022-09-09T05:53:32;15.10;89.00
16116;DHT22;8162;47.104;15.432;2022-09-09T05:56:10;15.20;89.10
16116;DHT22;8162;47.104;15.432;2022-09-09T05:58:37;15.20;89.10
16116;DHT22;8162;47.104;15.432;2022-09-09T06:01:09;15.30;89.00
16116;DHT22;8162;47.104;15.432;2022-09-09T06:03:36;15.30;89.00
16116;DHT22;8162;47.104;15.432;2022-09-09T06:06:04;15.30;89.00
16116;DHT22;8162;47.104;15.432;2022-09-09T06:08:34;15.30;88.90
16116;DHT22;8162;47.104;15.432;2022-09-09T06:11:08;15.40;89.00
16116;DHT22;8162;47.104;15.432;2022-09-09T06:13:34;15.50;88.90
16116;DHT22;8162;47.104;15.432;2022-09-09T06:16:00;15.50;88.70
16116;DHT22;8162;47.104;15.432;2022-09-09T06:18:26;15.60;88.50
16116;DHT22;8162;47.104;15.432;2022-09-09T06:21:17;15.60;88.60
16116;DHT22;8162;47.104;15.432;2022-09-09T06:23:44;15.70;88.60
16116;DHT22;8162;47.104;15.432;2022-09-09T06:26:23;15.70;88.50
16116;DHT22;8162;47.104;15.432;2022-09-09T06:28:51;15.70;88.50
16116;DHT22;8162;47.104;15.432;2022-09-09T06:31:22;15.80;88.40
16116;DHT22;8162;47.104;15.432;2022-09-09T06:33:53;15.80;88.50
16116;DHT22;8162;47.104;15.432;2022-09-09T06:36:28;15.80;88.40
16116;DHT22;8162;47.104;15.432;2022-09-09T06:38:55;15.80;88.40
16116;DHT22;8162;47.104;15.432;2022-09-09T06:41:22;15.80;87.50
16116;DHT22;8162;47.104;15.432;2022-09-09T06:43:48;15.80;87.70
16116;DHT22;8162;47.104;15.432;2022-09-09T06:46:17;15.80;86.40
16116;DHT22;8162;47.104;15.432;2022-09-09T06:48:44;15.90;86.90
16116;DHT22;8162;47.104;15.432;2022-09-09T06:51:12;16.00;87.10
16116;DHT22;8162;47.104;15.432;2022-09-09T06:53:40;16.00;87.40
16116;DHT22;8162;47.104;15.432;2022-09-09T06:56:26;16.10;87.60
16116;DHT22;8162;47.104;15.432;2022-09-09T06:58:54;16.20;87.40
16116;DHT22;8162;47.104;15.432;2022-09-09T07:01:22;16.20;87.50
16116;DHT22;8162;47.104;15.432;2022-09-09T07:03:53;16.20;87.20
16116;DHT22;8162;47.104;15.432;2022-09-09T07:06:28;16.20;84.50
16116;DHT22;8162;47.104;15.432;2022-09-09T07:08:56;16.20;84.10
16116;DHT22;8162;47.104;15.432;2022-09-09T07:11:23;16.20;83.90
16116;DHT22;8162;47.104;15.432;2022-09-09T07:13:49;16.20;83.70
16116;DHT22;8162;47.104;15.432;2022-09-09T07:16:17;16.30;84.20
16116;DHT22;8162;47.104;15.432;2022-09-09T07:18:44;16.30;84.80
16116;DHT22;8162;47.104;15.432;2022-09-09T07:21:10;16.30;85.40
16116;DHT22;8162;47.104;15.432;2022-09-09T07:23:40;16.40;83.30
16116;DHT22;8162;47.104;15.432;2022-09-09T07:26:11;16.30;81.90
16116;DHT22;8162;47.104;15.432;2022-09-09T07:28:37;16.30;81.50
16116;DHT22;8162;47.104;15.432;2022-09-09T07:31:05;16.30;80.60
16116;DHT22;8162;47.104;15.432;2022-09-09T07:33:33;16.30;82.00
16116;DHT22;8162;47.104;15.432;2022-09-09T07:36:20;16.40;82.10
16116;DHT22;8162;47.104;15.432;2022-09-09T07:38:52;16.40;82.60
16116;DHT22;8162;47.104;15.432;2022-09-09T07:43:48;16.50;82.70
16116;DHT22;8162;47.104;15.432;2022-09-09T07:46:16;16.50;83.30
16116;DHT22;8162;47.104;15.432;2022-09-09T07:48:48;16.60;83.70
16116;DHT22;8162;47.104;15.432;2022-09-09T07:51:19;16.60;82.70
16116;DHT22;8162;47.104;15.432;2022-09-09T07:53:51;16.60;82.90
16116;DHT22;8162;47.104;15.432;2022-09-09T07:56:18;16.60;82.10
16116;DHT22;8162;47.104;15.432;2022-09-09T07:58:47;16.60;82.70
16116;DHT22;8162;47.104;15.432;2022-09-09T08:01:19;16.60;82.60
16116;DHT22;8162;47.104;15.432;2022-09-09T08:03:47;16.60;83.00
16116;DHT22;8162;47.104;15.432;2022-09-09T08:06:17;16.60;81.20
16116;DHT22;8162;47.104;15.432;2022-09-09T08:08:43;16.60;82.10
16116;DHT22;8162;47.104;15.432;2022-09-09T08:11:11;16.60;82.70
16116;DHT22;8162;47.104;15.432;2022-09-09T08:13:38;16.70;83.40
16116;DHT22;8162;47.104;15.432;2022-09-09T08:16:16;16.70;83.70
16116;DHT22;8162;47.104;15.432;2022-09-09T08:18:42;16.70;84.20
16116;DHT22;8162;47.104;15.432;2022-09-09T08:21:10;16.80;84.40
16116;DHT22;8162;47.104;15.432;2022-09-09T08:23:38;16.80;84.70
16116;DHT22;8162;47.104;15.432;2022-09-09T08:26:14;16.80;84.40
16116;DHT22;8162;47.104;15.432;2022-09-09T08:28:41;16.90;84.90
16116;DHT22;8162;47.104;15.432;2022-09-09T08:31:11;17.00;85.00
16116;DHT22;8162;47.104;15.432;2022-09-09T08:33:37;17.00;85.10
16116;DHT22;8162;47.104;15.432;2022-09-09T08:36:05;17.00;84.90
16116;DHT22;8162;47.104;15.432;2022-09-09T08:38:31;17.00;85.10
16116;DHT22;8162;47.104;15.432;2022-09-09T08:41:07;17.00;85.00
16116;DHT22;8162;47.104;15.432;2022-09-09T08:43:36;17.10;85.10
16116;DHT22;8162;47.104;15.432;2022-09-09T08:48:58;17.10;85.30
16116;DHT22;8162;47.104;15.432;2022-09-09T08:51:30;17.10;84.50
16116;DHT22;8162;47.104;15.432;2022-09-09T08:53:58;17.10;84.10
16116;DHT22;8162;47.104;15.432;2022-09-09T08:56:27;17.20;84.50
16116;DHT22;8162;47.104;15.432;2022-09-09T08:58:54;17.20;84.70
16116;DHT22;8162;47.104;15.432;2022-09-09T09:01:32;17.30;84.80
16116;DHT22;8162;47.104;15.432;2022-09-09T09:10:14;17.30;83.90
16116;DHT22;8162;47.104;15.432;2022-09-09T09:12:44;17.30;83.90
16116;DHT22;8162;47.104;15.432;2022-09-09T09:15:36;17.40;84.20
16116;DHT22;8162;47.104;15.432;2022-09-09T09:18:03;17.40;83.40
16116;DHT22;8162;47.104;15.432;2022-09-09T09:23:21;17.40;80.10
16116;DHT22;8162;47.104;15.432;2022-09-09T09:25:47;17.50;79.70
16116;DHT22;8162;47.104;15.432;2022-09-09T09:28:23;17.50;78.90
16116;DHT22;8162;47.104;15.432;2022-09-09T09:31:16;17.50;78.70
16116;DHT22;8162;47.104;15.432;2022-09-09T09:33:54;17.60;80.00
16116;DHT22;8162;47.104;15.432;2022-09-09T09:36:33;17.80;79.80
16116;DHT22;8162;47.104;15.432;2022-09-09T09:39:00;17.80;79.90
16116;DHT22;8162;47.104;15.432;2022-09-09T09:41:41;17.90;79.50
16116;DHT22;8162;47.104;15.432;2022-09-09T09:44:41;18.00;78.50
16116;DHT22;8162;47.104;15.432;2022-09-09T09:47:16;18.00;79.00
16116;DHT22;8162;47.104;15.432;2022-09-09T09:49:56;18.00;78.70
16116;DHT22;8162;47.104;15.432;2022-09-09T09:52:27;18.20;80.10
16116;DHT22;8162;47.104;15.432;2022-09-09T09:54:54;18.20;79.90
16116;DHT22;8162;47.104;15.432;2022-09-09T09:57:29;18.30;77.70
16116;DHT22;8162;47.104;15.432;2022-09-09T10:02:39;18.50;78.20
16116;DHT22;8162;47.104;15.432;2022-09-09T10:07:37;18.70;77.90
16116;DHT22;8162;47.104;15.432;2022-09-09T10:10:05;18.70;77.30
16116;DHT22;8162;47.104;15.432;2022-09-09T10:20:43;18.90;74.30
16116;DHT22;8162;47.104;15.432;2022-09-09T10:28:33;19.20;75.40
16116;DHT22;8162;47.104;15.432;2022-09-09T10:31:29;19.30;73.10
16116;DHT22;8162;47.104;15.432;2022-09-09T10:36:57;19.40;75.40
16116;DHT22;8162;47.104;15.432;2022-09-09T10:39:38;19.40;73.90
16116;DHT22;8162;47.104;15.432;2022-09-09T10:42:15;19.50;74.20
16116;DHT22;8162;47.104;15.432;2022-09-09T10:45:15;19.60;75.40
16116;DHT22;8162;47.104;15.432;2022-09-09T10:47:53;19.70;74.30
16116;DHT22;8162;47.104;15.432;2022-09-09T10:53:27;19.70;70.10
16116;DHT22;8162;47.104;15.432;2022-09-09T10:56:01;19.70;72.90
16116;DHT22;8162;47.104;15.432;2022-09-09T10:58:42;19.70;71.10
16116;DHT22;8162;47.104;15.432;2022-09-09T11:04:13;19.70;71.70
16116;DHT22;8162;47.104;15.432;2022-09-09T11:06:45;19.60;71.40
16116;DHT22;8162;47.104;15.432;2022-09-09T11:09:19;19.60;72.40
16116;DHT22;8162;47.104;15.432;2022-09-09T11:11:54;19.60;70.90
16116;DHT22;8162;47.104;15.432;2022-09-09T11:14:41;19.60;69.10
16116;DHT22;8162;47.104;15.432;2022-09-09T11:17:12;19.50;70.80
16116;DHT22;8162;47.104;15.432;2022-09-09T11:19:41;19.50;72.80
16116;DHT22;8162;47.104;15.432;2022-09-09T11:33:08;19.40;76.70
16116;DHT22;8162;47.104;15.432;2022-09-09T11:38:28;19.30;76.80
16116;DHT22;8162;47.104;15.432;2022-09-09T11:41:14;19.30;75.70
16116;DHT22;8162;47.104;15.432;2022-09-09T11:43:44;19.30;76.50
16116;DHT22;8162;47.104;15.432;2022-09-09T11:46:10;19.30;76.10
16116;DHT22;8162;47.104;15.432;2022-09-09T11:48:39;19.30;75.10
16116;DHT22;8162;47.104;15.432;2022-09-09T11:51:24;19.30;75.40
16116;DHT22;8162;47.104;15.432;2022-09-09T11:53:59;19.30;74.90
16116;DHT22;8162;47.104;15.432;2022-09-09T11:56:44;19.40;74.00
16116;DHT22;8162;47.104;15.432;2022-09-09T12:01:58;19.50;74.30
16116;DHT22;8162;47.104;15.432;2022-09-09T12:07:03;19.60;74.20
16116;DHT22;8162;47.104;15.432;2022-09-09T12:09:49;19.70;71.00
16116;DHT22;8162;47.104;15.432;2022-09-09T12:12:29;19.70;72.10
16116;DHT22;8162;47.104;15.432;2022-09-09T12:17:53;19.80;72.80
16116;DHT22;8162;47.104;15.432;2022-09-09T12:20:38;19.80;72.50
16116;DHT22;8162;47.104;15.432;2022-09-09T12:29:16;19.80;70.30
16116;DHT22;8162;47.104;15.432;2022-09-09T12:32:06;19.90;68.90
16116;DHT22;8162;47.104;15.432;2022-09-09T12:34:46;19.80;70.10
16116;DHT22;8162;47.104;15.432;2022-09-09T12:40:23;19.80;69.70
16116;DHT22;8162;47.104;15.432;2022-09-09T12:42:50;19.90;69.90
16116;DHT22;8162;47.104;15.432;2022-09-09T12:45:28;19.80;69.30
16116;DHT22;8162;47.104;15.432;2022-09-09T12:48:07;19.80;69.90
16116;DHT22;8162;47.104;15.432;2022-09-09T12:50:52;19.80;68.20
16116;DHT22;8162;47.104;15.432;2022-09-09T12:53:30;19.90;69.40
16116;DHT22;8162;47.104;15.432;2022-09-09T12:56:02;19.90;71.40
16116;DHT22;8162;47.104;15.432;2022-09-09T12:58:30;19.90;73.00
16116;DHT22;8162;47.104;15.432;2022-09-09T13:00:59;19.90;73.20
16116;DHT22;8162;47.104;15.432;2022-09-09T13:03:26;20.00;73.30
16116;DHT22;8162;47.104;15.432;2022-09-09T13:05:53;19.90;72.60
16116;DHT22;8162;47.104;15.432;2022-09-09T13:08:19;19.90;73.50
16116;DHT22;8162;47.104;15.432;2022-09-09T13:11:06;19.90;73.80
16116;DHT22;8162;47.104;15.432;2022-09-09T13:13:37;19.90;73.70
16116;DHT22;8162;47.104;15.432;2022-09-09T13:16:05;19.80;69.30
16116;DHT22;8162;47.104;15.432;2022-09-09T13:18:39;19.80;71.40
16116;DHT22;8162;47.104;15.432;2022-09-09T13:21:06;19.80;70.40
16116;DHT22;8162;47.104;15.432;2022-09-09T13:23:36;19.80;72.90
16116;DHT22;8162;47.104;15.432;2022-09-09T13:26:05;19.70;70.20
16116;DHT22;8162;47.104;15.432;2022-09-09T13:28:33;19.80;72.60
16116;DHT22;8162;47.104;15.432;2022-09-09T13:31:29;19.70;72.60
16116;DHT22;8162;47.104;15.432;2022-09-09T13:33:55;19.70;73.10
16116;DHT22;8162;47.104;15.432;2022-09-09T13:36:29;19.70;73.90
16116;DHT22;8162;47.104;15.432;2022-09-09T13:38:57;19.70;72.40
16116;DHT22;8162;47.104;15.432;2022-09-09T13:41:35;19.60;74.00
16116;DHT22;8162;47.104;15.432;2022-09-09T13:44:02;19.60;74.30
16116;DHT22;8162;47.104;15.432;2022-09-09T13:48:59;19.60;75.10
16116;DHT22;8162;47.104;15.432;2022-09-09T13:51:37;19.50;74.70
16116;DHT22;8162;47.104;15.432;2022-09-09T13:54:08;19.50;74.00
16116;DHT22;8162;47.104;15.432;2022-09-09T13:56:35;19.50;75.10
16116;DHT22;8162;47.104;15.432;2022-09-09T13:59:03;19.40;75.60
16116;DHT22;8162;47.104;15.432;2022-09-09T14:01:29;19.40;75.20
16116;DHT22;8162;47.104;15.432;2022-09-09T14:03:55;19.40;75.30
16116;DHT22;8162;47.104;15.432;2022-09-09T14:06:21;19.40;76.50
16116;DHT22;8162;47.104;15.432;2022-09-09T14:08:48;19.30;76.70
16116;DHT22;8162;47.104;15.432;2022-09-09T14:11:14;19.30;76.70
16116;DHT22;8162;47.104;15.432;2022-09-09T14:13:40;19.30;77.40
16116;DHT22;8162;47.104;15.432;2022-09-09T14:16:06;19.30;77.70
16116;DHT22;8162;47.104;15.432;2022-09-09T14:18:32;19.20;78.20
16116;DHT22;8162;47.104;15.432;2022-09-09T14:20:57;19.20;78.60
16116;DHT22;8162;47.104;15.432;2022-09-09T14:23:24;19.20;79.50
16116;DHT22;8162;47.104;15.432;2022-09-09T14:25:50;19.10;80.30
16116;DHT22;8162;47.104;15.432;2022-09-09T14:28:16;19.00;80.30
16116;DHT22;8162;47.104;15.432;2022-09-09T14:30:43;18.90;81.90
16116;DHT22;8162;47.104;15.432;2022-09-09T14:33:12;18.80;82.20
16116;DHT22;8162;47.104;15.432;2022-09-09T14:35:38;18.80;82.40
16116;DHT22;8162;47.104;15.432;2022-09-09T14:38:07;18.70;82.50
16116;DHT22;8162;47.104;15.432;2022-09-09T14:40:37;18.70;83.10
16116;DHT22;8162;47.104;15.432;2022-09-09T14:43:04;18.50;81.50
16116;DHT22;8162;47.104;15.432;2022-09-09T14:45:31;18.30;82.60
16116;DHT22;8162;47.104;15.432;2022-09-09T14:47:56;18.30;82.80
16116;DHT22;8162;47.104;15.432;2022-09-09T14:50:23;18.30;82.80
16116;DHT22;8162;47.104;15.432;2022-09-09T14:52:49;18.30;83.30
16116;DHT22;8162;47.104;15.432;2022-09-09T14:55:15;18.30;83.40
16116;DHT22;8162;47.104;15.432;2022-09-09T14:57:41;18.30;83.10
16116;DHT22;8162;47.104;15.432;2022-09-09T15:00:09;18.20;83.10
16116;DHT22;8162;47.104;15.432;2022-09-09T15:02:34;18.30;83.40
16116;DHT22;8162;47.104;15.432;2022-09-09T15:05:00;18.30;83.30
16116;DHT22;8162;47.104;15.432;2022-09-09T15:07:27;18.30;83.20
16116;DHT22;8162;47.104;15.432;2022-09-09T15:09:54;18.30;83.80
16116;DHT22;8162;47.104;15.432;2022-09-09T15:12:20;18.30;83.80
16116;DHT22;8162;47.104;15.432;2022-09-09T15:14:46;18.30;83.90
16116;DHT22;8162;47.104;15.432;2022-09-09T15:17:12;18.30;84.80
16116;DHT22;8162;47.104;15.432;2022-09-09T15:19:38;18.20;84.60
16116;DHT22;8162;47.104;15.432;2022-09-09T15:22:04;18.20;85.40
16116;DHT22;8162;47.104;15.432;2022-09-09T15:24:34;18.20;85.70
16116;DHT22;8162;47.104;15.432;2022-09-09T15:27:00;18.30;86.10
16116;DHT22;8162;47.104;15.432;2022-09-09T15:29:26;18.30;86.70
16116;DHT22;8162;47.104;15.432;2022-09-09T15:31:54;18.30;86.90
16116;DHT22;8162;47.104;15.432;2022-09-09T15:34:20;18.30;87.20
16116;DHT22;8162;47.104;15.432;2022-09-09T15:36:46;18.20;86.70
16116;DHT22;8162;47.104;15.432;2022-09-09T15:39:14;18.10;87.00
16116;DHT22;8162;47.104;15.432;2022-09-09T15:41:42;18.20;86.90
16116;DHT22;8162;47.104;15.432;2022-09-09T15:44:09;18.10;86.60
16116;DHT22;8162;47.104;15.432;2022-09-09T15:46:43;18.20;86.80
16116;DHT22;8162;47.104;15.432;2022-09-09T15:49:13;18.20;86.50
16116;DHT22;8162;47.104;15.432;2022-09-09T15:51:41;18.20;86.40
16116;DHT22;8162;47.104;15.432;2022-09-09T15:54:09;18.20;86.60
16116;DHT22;8162;47.104;15.432;2022-09-09T15:56:34;18.20;86.50
16116;DHT22;8162;47.104;15.432;2022-09-09T15:59:01;18.30;86.90
16116;DHT22;8162;47.104;15.432;2022-09-09T16:01:28;18.30;86.70
16116;DHT22;8162;47.104;15.432;2022-09-09T16:03:54;18.30;86.50
16116;DHT22;8162;47.104;15.432;2022-09-09T16:06:22;18.30;86.40
16116;DHT22;8162;47.104;15.432;2022-09-09T16:08:51;18.40;86.60
16116;DHT22;8162;47.104;15.432;2022-09-09T16:11:25;18.40;86.80
16116;DHT22;8162;47.104;15.432;2022-09-09T16:13:52;18.50;87.00
16116;DHT22;8162;47.104;15.432;2022-09-09T16:16:21;18.50;87.00
16116;DHT22;8162;47.104;15.432;2022-09-09T16:18:50;18.60;87.00
16116;DHT22;8162;47.104;15.432;2022-09-09T16:21:32;18.60;87.10
16116;DHT22;8162;47.104;15.432;2022-09-09T16:23:59;18.60;86.90
16116;DHT22;8162;47.104;15.432;2022-09-09T16:26:26;18.60;86.60
16116;DHT22;8162;47.104;15.432;2022-09-09T16:28:52;18.60;86.20
16116;DHT22;8162;47.104;15.432;2022-09-09T16:31:22;18.50;86.10
16116;DHT22;8162;47.104;15.432;2022-09-09T16:33:48;18.50;86.30
16116;DHT22;8162;47.104;15.432;2022-09-09T16:36:19;18.50;86.00
16116;DHT22;8162;47.104;15.432;2022-09-09T16:38:45;18.50;86.20
16116;DHT22;8162;47.104;15.432;2022-09-09T16:41:12;18.40;86.20
16116;DHT22;8162;47.104;15.432;2022-09-09T16:43:38;18.40;86.40
16116;DHT22;8162;47.104;15.432;2022-09-09T16:46:17;18.40;86.70
16116;DHT22;8162;47.104;15.432;2022-09-09T16:48:44;18.40;86.90
16116;DHT22;8162;47.104;15.432;2022-09-09T16:51:29;18.30;86.40
16116;DHT22;8162;47.104;15.432;2022-09-09T16:53:56;18.30;86.50
16116;DHT22;8162;47.104;15.432;2022-09-09T16:56:25;18.30;86.80
16116;DHT22;8162;47.104;15.432;2022-09-09T16:58:59;18.30;86.30
16116;DHT22;8162;47.104;15.432;2022-09-09T17:01:26;18.30;86.40
16116;DHT22;8162;47.104;15.432;2022-09-09T17:03:56;18.20;86.20
16116;DHT22;8162;47.104;15.432;2022-09-09T17:06:23;18.30;86.70
16116;DHT22;8162;47.104;15.432;2022-09-09T17:09:03;18.20;86.60
16116;DHT22;8162;47.104;15.432;2022-09-09T17:11:29;18.20;86.90
16116;DHT22;8162;47.104;15.432;2022-09-09T17:13:56;18.20;87.00
16116;DHT22;8162;47.104;15.432;2022-09-09T17:16:25;18.20;87.10
16116;DHT22;8162;47.104;15.432;2022-09-09T17:18:53;18.20;87.20
16116;DHT22;8162;47.104;15.432;2022-09-09T17:21:23;18.20;87.30
16116;DHT22;8162;47.104;15.432;2022-09-09T17:23:50;18.20;87.40
16116;DHT22;8162;47.104;15.432;2022-09-09T17:26:18;18.20;87.30
16116;DHT22;8162;47.104;15.432;2022-09-09T17:28:44;18.20;87.40
16116;DHT22;8162;47.104;15.432;2022-09-09T17:31:12;18.20;87.60
16116;DHT22;8162;47.104;15.432;2022-09-09T17:33:41;18.10;87.60
16116;DHT22;8162;47.104;15.432;2022-09-09T17:36:12;18.10;87.60